sensor_id;sensor_type;location;lat;lon;timestamp;temperature;humidity
68912;SHT31;55953;51.650;-0.522;2023-04-25T00:01:10;4.53;81.33
68912;SHT31;55953;51.650;-0.522;2023-04-25T00:03:41;4.51;81.37
68912;SHT31;55953;51.650;-0.522;2023-04-25T00:06:09;4.46;81.54
68912;SHT31;55953;51.650;-0.522;2023-04-25T00:08:37;4.43;81.78
68912;SHT31;55953;51.650;-0.522;2023-04-25T00:11:05;4.38;81.63
68912;SHT31;55953;51.650;-0.522;2023-04-25T00:13:33;4.34;81.68
68912;SHT31;55953;51.650;-0.522;2023-04-25T00:16:01;4.29;81.62
68912;SHT31;55953;51.650;-0.522;2023-04-25T00:18:30;4.23;81.64
68912;SHT31;55953;51.650;-0.522;2023-04-25T00:21:00;4.16;81.44
68912;SHT31;55953;51.650;-0.522;2023-04-25T00:23:28;4.11;81.74
68912;SHT31;55953;51.650;-0.522;2023-04-25T00:25:56;4.04;81.07
68912;SHT31;55953;51.650;-0.522;2023-04-25T00:28:23;4.00;81.37
68912;SHT31;55953;51.650;-0.522;2023-04-25T00:30:52;3.94;81.70
68912;SHT31;55953;51.650;-0.522;2023-04-25T00:33:19;3.89;81.85
68912;SHT31;55953;51.650;-0.522;2023-04-25T00:35:47;3.85;81.69
68912;SHT31;55953;51.650;-0.522;2023-04-25T00:38:15;3.83;81.70
68912;SHT31;55953;51.650;-0.522;2023-04-25T00:40:43;3.79;82.00
68912;SHT31;55953;51.650;-0.522;2023-04-25T00:43:11;3.74;81.91
68912;SHT31;55953;51.650;-0.522;2023-04-25T00:45:39;3.71;82.08
68912;SHT31;55953;51.650;-0.522;2023-04-25T00:48:07;3.68;81.93
68912;SHT31;55953;51.650;-0.522;2023-04-25T00:50:36;3.64;81.99
68912;SHT31;55953;51.650;-0.522;2023-04-25T00:53:04;3.60;81.94
68912;SHT31;55953;51.650;-0.522;2023-04-25T00:55:32;3.55;81.99
68912;SHT31;55953;51.650;-0.522;2023-04-25T00:58:03;3.55;82.39
68912;SHT31;55953;51.650;-0.522;2023-04-25T01:00:31;3.54;82.54
68912;SHT31;55953;51.650;-0.522;2023-04-25T01:02:59;3.51;82.43
68912;SHT31;55953;51.650;-0.522;2023-04-25T01:05:28;3.47;82.45
68912;SHT31;55953;51.650;-0.522;2023-04-25T01:07:56;3.43;82.36
68912;SHT31;55953;51.650;-0.522;2023-04-25T01:10:24;3.39;82.15
68912;SHT31;55953;51.650;-0.522;2023-04-25T01:12:52;3.36;82.02
68912;SHT31;55953;51.650;-0.522;2023-04-25T01:15:20;3.37;82.43
68912;SHT31;55953;51.650;-0.522;2023-04-25T01:17:48;3.33;82.37
68912;SHT31;55953;51.650;-0.522;2023-04-25T01:20:17;3.33;82.61
68912;SHT31;55953;51.650;-0.522;2023-04-25T01:22:45;3.27;82.46
68912;SHT31;55953;51.650;-0.522;2023-04-25T01:25:13;3.25;82.66
68912;SHT31;55953;51.650;-0.522;2023-04-25T01:27:42;3.24;82.68
68912;SHT31;55953;51.650;-0.522;2023-04-25T01:30:10;3.18;82.75
68912;SHT31;55953;51.650;-0.522;2023-04-25T01:32:41;3.13;82.35
68912;SHT31;55953;51.650;-0.522;2023-04-25T01:35:10;3.11;82.43
68912;SHT31;55953;51.650;-0.522;2023-04-25T01:37:42;3.09;82.52
68912;SHT31;55953;51.650;-0.522;2023-04-25T01:40:12;3.06;82.54
68912;SHT31;55953;51.650;-0.522;2023-04-25T01:42:41;3.03;82.59
68912;SHT31;55953;51.650;-0.522;2023-04-25T01:45:11;3.02;82.53
68912;SHT31;55953;51.650;-0.522;2023-04-25T01:47:40;3.00;82.62
68912;SHT31;55953;51.650;-0.522;2023-04-25T01:50:10;2.99;82.69
68912;SHT31;55953;51.650;-0.522;2023-04-25T01:52:38;2.95;82.71
68912;SHT31;55953;51.650;-0.522;2023-04-25T01:55:07;2.93;82.75
68912;SHT31;55953;51.650;-0.522;2023-04-25T01:57:38;2.91;82.73
68912;SHT31;55953;51.650;-0.522;2023-04-25T02:00:07;2.89;82.52
68912;SHT31;55953;51.650;-0.522;2023-04-25T02:02:39;2.88;82.74
68912;SHT31;55953;51.650;-0.522;2023-04-25T02:05:25;2.87;82.88
68912;SHT31;55953;51.650;-0.522;2023-04-25T02:07:53;2.86;82.74
68912;SHT31;55953;51.650;-0.522;2023-04-25T02:10:21;2.84;82.72
68912;SHT31;55953;51.650;-0.522;2023-04-25T02:12:55;2.83;82.91
68912;SHT31;55953;51.650;-0.522;2023-04-25T02:15:40;2.80;82.79
68912;SHT31;55953;51.650;-0.522;2023-04-25T02:18:16;2.75;82.88
68912;SHT31;55953;51.650;-0.522;2023-04-25T02:20:44;2.73;82.84
68912;SHT31;55953;51.650;-0.522;2023-04-25T02:23:13;2.71;82.91
68912;SHT31;55953;51.650;-0.522;2023-04-25T02:25:42;2.67;82.84
68912;SHT31;55953;51.650;-0.522;2023-04-25T02:28:10;2.65;82.51
68912;SHT31;55953;51.650;-0.522;2023-04-25T02:30:38;2.66;82.70
68912;SHT31;55953;51.650;-0.522;2023-04-25T02:33:06;2.65;82.49
68912;SHT31;55953;51.650;-0.522;2023-04-25T02:35:36;2.69;82.44
68912;SHT31;55953;51.650;-0.522;2023-04-25T02:38:03;2.71;82.24
68912;SHT31;55953;51.650;-0.522;2023-04-25T02:40:33;2.76;81.78
68912;SHT31;55953;51.650;-0.522;2023-04-25T02:43:00;2.81;81.88
68912;SHT31;55953;51.650;-0.522;2023-04-25T02:45:28;2.82;81.51
68912;SHT31;55953;51.650;-0.522;2023-04-25T02:47:56;2.82;81.77
68912;SHT31;55953;51.650;-0.522;2023-04-25T02:50:24;2.81;81.90
68912;SHT31;55953;51.650;-0.522;2023-04-25T02:52:52;2.79;81.79
68912;SHT31;55953;51.650;-0.522;2023-04-25T02:55:24;2.75;81.84
68912;SHT31;55953;51.650;-0.522;2023-04-25T02:57:55;2.73;82.01
68912;SHT31;55953;51.650;-0.522;2023-04-25T03:00:34;2.69;82.19
68912;SHT31;55953;51.650;-0.522;2023-04-25T03:03:02;2.67;82.41
68912;SHT31;55953;51.650;-0.522;2023-04-25T03:05:30;2.64;82.47
68912;SHT31;55953;51.650;-0.522;2023-04-25T03:07:59;2.60;82.38
68912;SHT31;55953;51.650;-0.522;2023-04-25T03:10:27;2.56;82.36
68912;SHT31;55953;51.650;-0.522;2023-04-25T03:12:56;2.54;82.58
68912;SHT31;55953;51.650;-0.522;2023-04-25T03:15:25;2.51;82.75
68912;SHT31;55953;51.650;-0.522;2023-04-25T03:17:53;2.47;82.72
68912;SHT31;55953;51.650;-0.522;2023-04-25T03:20:21;2.41;82.73
68912;SHT31;55953;51.650;-0.522;2023-04-25T03:22:49;2.38;82.78
68912;SHT31;55953;51.650;-0.522;2023-04-25T03:25:18;2.35;82.84
68912;SHT31;55953;51.650;-0.522;2023-04-25T03:27:46;2.31;82.72
68912;SHT31;55953;51.650;-0.522;2023-04-25T03:30:14;2.29;82.82
68912;SHT31;55953;51.650;-0.522;2023-04-25T03:32:43;2.28;82.88
68912;SHT31;55953;51.650;-0.522;2023-04-25T03:35:14;2.27;82.92
68912;SHT31;55953;51.650;-0.522;2023-04-25T03:37:42;2.26;82.89
68912;SHT31;55953;51.650;-0.522;2023-04-25T03:40:16;2.25;82.96
68912;SHT31;55953;51.650;-0.522;2023-04-25T03:43:10;2.24;82.96
68912;SHT31;55953;51.650;-0.522;2023-04-25T03:45:40;2.23;83.08
68912;SHT31;55953;51.650;-0.522;2023-04-25T03:48:08;2.24;83.10
68912;SHT31;55953;51.650;-0.522;2023-04-25T03:50:36;2.23;83.10
68912;SHT31;55953;51.650;-0.522;2023-04-25T03:53:04;2.20;83.06
68912;SHT31;55953;51.650;-0.522;2023-04-25T03:55:46;2.20;83.04
68912;SHT31;55953;51.650;-0.522;2023-04-25T03:58:13;2.19;82.99
68912;SHT31;55953;51.650;-0.522;2023-04-25T04:00:41;2.20;83.08
68912;SHT31;55953;51.650;-0.522;2023-04-25T04:03:09;2.17;83.00
68912;SHT31;55953;51.650;-0.522;2023-04-25T04:05:38;2.20;82.98
68912;SHT31;55953;51.650;-0.522;2023-04-25T04:08:08;2.20;82.93
68912;SHT31;55953;51.650;-0.522;2023-04-25T04:10:38;2.19;82.90
68912;SHT31;55953;51.650;-0.522;2023-04-25T04:13:06;2.19;82.99
68912;SHT31;55953;51.650;-0.522;2023-04-25T04:15:34;2.17;83.00
68912;SHT31;55953;51.650;-0.522;2023-04-25T04:18:02;2.14;83.00
68912;SHT31;55953;51.650;-0.522;2023-04-25T04:20:30;2.12;82.99
68912;SHT31;55953;51.650;-0.522;2023-04-25T04:22:58;2.10;82.94
68912;SHT31;55953;51.650;-0.522;2023-04-25T04:25:26;2.09;82.99
68912;SHT31;55953;51.650;-0.522;2023-04-25T04:28:33;2.08;83.01
68912;SHT31;55953;51.650;-0.522;2023-04-25T04:31:06;2.08;82.97
68912;SHT31;55953;51.650;-0.522;2023-04-25T04:33:35;2.07;83.02
68912;SHT31;55953;51.650;-0.522;2023-04-25T04:36:04;2.04;82.90
68912;SHT31;55953;51.650;-0.522;2023-04-25T04:38:35;2.03;83.08
68912;SHT31;55953;51.650;-0.522;2023-04-25T04:41:05;2.01;83.09
68912;SHT31;55953;51.650;-0.522;2023-04-25T04:43:48;1.98;83.18
68912;SHT31;55953;51.650;-0.522;2023-04-25T04:46:30;1.97;83.18
68912;SHT31;55953;51.650;-0.522;2023-04-25T04:49:12;1.95;83.26
68912;SHT31;55953;51.650;-0.522;2023-04-25T04:51:49;1.96;83.37
68912;SHT31;55953;51.650;-0.522;2023-04-25T04:54:49;1.90;83.36
68912;SHT31;55953;51.650;-0.522;2023-04-25T04:57:33;1.88;83.58
68912;SHT31;55953;51.650;-0.522;2023-04-25T05:00:14;1.90;83.74
68912;SHT31;55953;51.650;-0.522;2023-04-25T05:03:02;1.90;83.66
68912;SHT31;55953;51.650;-0.522;2023-04-25T05:05:41;1.89;83.59
68912;SHT31;55953;51.650;-0.522;2023-04-25T05:08:27;1.87;83.49
68912;SHT31;55953;51.650;-0.522;2023-04-25T05:11:10;1.88;83.43
68912;SHT31;55953;51.650;-0.522;2023-04-25T05:13:58;1.91;83.51
68912;SHT31;55953;51.650;-0.522;2023-04-25T05:16:44;1.91;83.57
68912;SHT31;55953;51.650;-0.522;2023-04-25T05:19:48;1.91;83.40
68912;SHT31;55953;51.650;-0.522;2023-04-25T05:22:35;1.92;83.58
68912;SHT31;55953;51.650;-0.522;2023-04-25T05:25:22;1.94;83.34
68912;SHT31;55953;51.650;-0.522;2023-04-25T05:27:57;1.97;83.34
68912;SHT31;55953;51.650;-0.522;2023-04-25T05:30:40;2.02;83.35
68912;SHT31;55953;51.650;-0.522;2023-04-25T05:33:20;2.06;83.31
68912;SHT31;55953;51.650;-0.522;2023-04-25T05:35:48;2.10;83.29
68912;SHT31;55953;51.650;-0.522;2023-04-25T05:38:16;2.14;83.08
68912;SHT31;55953;51.650;-0.522;2023-04-25T05:41:02;2.19;83.16
68912;SHT31;55953;51.650;-0.522;2023-04-25T05:43:41;2.25;83.28
68912;SHT31;55953;51.650;-0.522;2023-04-25T05:46:35;2.30;83.08
68912;SHT31;55953;51.650;-0.522;2023-04-25T05:49:19;2.34;82.92
68912;SHT31;55953;51.650;-0.522;2023-04-25T05:52:13;2.40;82.84
68912;SHT31;55953;51.650;-0.522;2023-04-25T05:54:49;2.45;82.72
68912;SHT31;55953;51.650;-0.522;2023-04-25T05:57:20;2.49;82.54
68912;SHT31;55953;51.650;-0.522;2023-04-25T05:59:54;2.56;82.34
68912;SHT31;55953;51.650;-0.522;2023-04-25T06:02:23;2.62;82.55
68912;SHT31;55953;51.650;-0.522;2023-04-25T06:04:52;2.71;82.40
68912;SHT31;55953;51.650;-0.522;2023-04-25T06:07:22;2.82;82.35
68912;SHT31;55953;51.650;-0.522;2023-04-25T06:09:50;3.00;82.47
68912;SHT31;55953;51.650;-0.522;2023-04-25T06:12:18;3.07;81.41
68912;SHT31;55953;51.650;-0.522;2023-04-25T06:14:47;3.13;81.39
68912;SHT31;55953;51.650;-0.522;2023-04-25T06:17:15;3.30;81.52
68912;SHT31;55953;51.650;-0.522;2023-04-25T06:19:43;3.55;81.43
68912;SHT31;55953;51.650;-0.522;2023-04-25T06:22:12;3.84;80.32
68912;SHT31;55953;51.650;-0.522;2023-04-25T06:24:40;4.24;80.29
68912;SHT31;55953;51.650;-0.522;2023-04-25T06:27:08;4.58;79.86
68912;SHT31;55953;51.650;-0.522;2023-04-25T06:29:36;4.78;78.53
68912;SHT31;55953;51.650;-0.522;2023-04-25T06:32:05;4.73;77.56
68912;SHT31;55953;51.650;-0.522;2023-04-25T06:34:34;4.78;78.24
68912;SHT31;55953;51.650;-0.522;2023-04-25T06:37:02;4.89;78.53
68912;SHT31;55953;51.650;-0.522;2023-04-25T06:39:30;4.93;77.42
68912;SHT31;55953;51.650;-0.522;2023-04-25T06:41:58;5.05;77.76
68912;SHT31;55953;51.650;-0.522;2023-04-25T06:44:44;5.27;77.11
68912;SHT31;55953;51.650;-0.522;2023-04-25T06:47:13;5.47;76.21
68912;SHT31;55953;51.650;-0.522;2023-04-25T06:49:42;5.68;75.52
68912;SHT31;55953;51.650;-0.522;2023-04-25T06:52:10;5.92;74.15
68912;SHT31;55953;51.650;-0.522;2023-04-25T06:54:38;5.84;73.54
68912;SHT31;55953;51.650;-0.522;2023-04-25T06:57:18;5.88;74.14
68912;SHT31;55953;51.650;-0.522;2023-04-25T06:59:46;5.84;74.78
68912;SHT31;55953;51.650;-0.522;2023-04-25T07:02:14;5.80;74.69
68912;SHT31;55953;51.650;-0.522;2023-04-25T07:04:42;5.68;73.20
68912;SHT31;55953;51.650;-0.522;2023-04-25T07:07:10;5.84;73.88
68912;SHT31;55953;51.650;-0.522;2023-04-25T07:09:46;5.86;73.73
68912;SHT31;55953;51.650;-0.522;2023-04-25T07:12:15;5.84;73.88
68912;SHT31;55953;51.650;-0.522;2023-04-25T07:14:43;5.80;73.66
68912;SHT31;55953;51.650;-0.522;2023-04-25T07:17:11;5.84;74.84
68912;SHT31;55953;51.650;-0.522;2023-04-25T07:19:39;5.86;75.17
68912;SHT31;55953;51.650;-0.522;2023-04-25T07:22:07;5.81;74.43
68912;SHT31;55953;51.650;-0.522;2023-04-25T07:24:36;5.82;74.66
68912;SHT31;55953;51.650;-0.522;2023-04-25T07:27:04;5.78;73.47
68912;SHT31;55953;51.650;-0.522;2023-04-25T07:29:45;5.77;74.08
68912;SHT31;55953;51.650;-0.522;2023-04-25T07:32:14;5.82;74.04
68912;SHT31;55953;51.650;-0.522;2023-04-25T07:34:42;5.84;72.07
68912;SHT31;55953;51.650;-0.522;2023-04-25T07:37:10;6.03;71.47
68912;SHT31;55953;51.650;-0.522;2023-04-25T07:39:49;6.13;70.08
68912;SHT31;55953;51.650;-0.522;2023-04-25T07:42:17;6.28;70.13
68912;SHT31;55953;51.650;-0.522;2023-04-25T07:44:45;6.25;69.19
68912;SHT31;55953;51.650;-0.522;2023-04-25T07:47:13;6.19;69.17
68912;SHT31;55953;51.650;-0.522;2023-04-25T07:49:41;6.22;70.08
68912;SHT31;55953;51.650;-0.522;2023-04-25T07:52:09;6.22;69.62
68912;SHT31;55953;51.650;-0.522;2023-04-25T07:54:37;6.23;69.38
68912;SHT31;55953;51.650;-0.522;2023-04-25T07:57:12;6.29;69.42
68912;SHT31;55953;51.650;-0.522;2023-04-25T07:59:41;6.34;68.00
68912;SHT31;55953;51.650;-0.522;2023-04-25T08:02:09;6.42;68.04
68912;SHT31;55953;51.650;-0.522;2023-04-25T08:04:38;6.59;68.43
68912;SHT31;55953;51.650;-0.522;2023-04-25T08:07:08;6.77;68.11
68912;SHT31;55953;51.650;-0.522;2023-04-25T08:09:49;6.98;67.89
68912;SHT31;55953;51.650;-0.522;2023-04-25T08:12:26;7.12;67.26
68912;SHT31;55953;51.650;-0.522;2023-04-25T08:14:55;7.33;67.63
68912;SHT31;55953;51.650;-0.522;2023-04-25T08:17:24;7.53;67.19
68912;SHT31;55953;51.650;-0.522;2023-04-25T08:19:52;7.68;67.29
68912;SHT31;55953;51.650;-0.522;2023-04-25T08:22:24;7.83;66.24
68912;SHT31;55953;51.650;-0.522;2023-04-25T08:25:10;7.86;64.14
68912;SHT31;55953;51.650;-0.522;2023-04-25T08:27:39;7.89;63.96
68912;SHT31;55953;51.650;-0.522;2023-04-25T08:30:07;8.02;64.26
68912;SHT31;55953;51.650;-0.522;2023-04-25T08:32:36;8.10;63.72
68912;SHT31;55953;51.650;-0.522;2023-04-25T08:35:16;7.93;62.84
68912;SHT31;55953;51.650;-0.522;2023-04-25T08:37:44;7.90;64.03
68912;SHT31;55953;51.650;-0.522;2023-04-25T08:40:15;8.04;64.56
68912;SHT31;55953;51.650;-0.522;2023-04-25T08:43:06;8.00;63.53
68912;SHT31;55953;51.650;-0.522;2023-04-25T08:45:39;7.83;62.85
68912;SHT31;55953;51.650;-0.522;2023-04-25T08:48:14;7.92;64.32
68912;SHT31;55953;51.650;-0.522;2023-04-25T08:50:54;7.96;64.44
68912;SHT31;55953;51.650;-0.522;2023-04-25T08:53:29;8.12;62.78
68912;SHT31;55953;51.650;-0.522;2023-04-25T08:56:01;8.31;63.26
68912;SHT31;55953;51.650;-0.522;2023-04-25T08:58:34;8.39;63.03
68912;SHT31;55953;51.650;-0.522;2023-04-25T09:01:03;8.48;63.06
68912;SHT31;55953;51.650;-0.522;2023-04-25T09:03:37;8.49;61.92
68912;SHT31;55953;51.650;-0.522;2023-04-25T09:06:05;8.33;61.02
68912;SHT31;55953;51.650;-0.522;2023-04-25T09:08:35;8.29;60.89
68912;SHT31;55953;51.650;-0.522;2023-04-25T09:11:04;8.47;62.57
68912;SHT31;55953;51.650;-0.522;2023-04-25T09:13:32;8.72;62.08
68912;SHT31;55953;51.650;-0.522;2023-04-25T09:16:19;8.98;61.72
68912;SHT31;55953;51.650;-0.522;2023-04-25T09:19:04;9.15;58.33
68912;SHT31;55953;51.650;-0.522;2023-04-25T09:21:33;9.09;56.17
68912;SHT31;55953;51.650;-0.522;2023-04-25T09:24:02;9.05;57.42
68912;SHT31;55953;51.650;-0.522;2023-04-25T09:26:31;9.11;57.65
68912;SHT31;55953;51.650;-0.522;2023-04-25T09:29:07;9.07;56.89
68912;SHT31;55953;51.650;-0.522;2023-04-25T09:31:37;9.08;55.84
68912;SHT31;55953;51.650;-0.522;2023-04-25T09:34:05;9.25;56.51
68912;SHT31;55953;51.650;-0.522;2023-04-25T09:36:41;9.41;56.02
68912;SHT31;55953;51.650;-0.522;2023-04-25T09:39:32;9.53;55.95
68912;SHT31;55953;51.650;-0.522;2023-04-25T09:42:10;9.53;56.99
68912;SHT31;55953;51.650;-0.522;2023-04-25T09:44:41;9.88;57.80
68912;SHT31;55953;51.650;-0.522;2023-04-25T09:47:12;10.01;55.11
68912;SHT31;55953;51.650;-0.522;2023-04-25T09:49:45;10.09;54.09
68912;SHT31;55953;51.650;-0.522;2023-04-25T09:52:18;10.30;54.64
68912;SHT31;55953;51.650;-0.522;2023-04-25T09:55:15;10.53;52.56
68912;SHT31;55953;51.650;-0.522;2023-04-25T09:57:44;10.60;53.40
68912;SHT31;55953;51.650;-0.522;2023-04-25T10:00:18;10.57;49.52
68912;SHT31;55953;51.650;-0.522;2023-04-25T10:02:48;10.63;52.91
68912;SHT31;55953;51.650;-0.522;2023-04-25T10:05:40;10.91;52.57
68912;SHT31;55953;51.650;-0.522;2023-04-25T10:08:10;10.93;51.22
68912;SHT31;55953;51.650;-0.522;2023-04-25T10:10:40;10.94;50.87
68912;SHT31;55953;51.650;-0.522;2023-04-25T10:13:08;10.66;48.69
68912;SHT31;55953;51.650;-0.522;2023-04-25T10:15:37;10.50;50.16
68912;SHT31;55953;51.650;-0.522;2023-04-25T10:18:06;10.58;49.89
68912;SHT31;55953;51.650;-0.522;2023-04-25T10:20:35;10.69;51.04
68912;SHT31;55953;51.650;-0.522;2023-04-25T10:23:04;10.79;51.16
68912;SHT31;55953;51.650;-0.522;2023-04-25T10:25:42;10.86;51.10
68912;SHT31;55953;51.650;-0.522;2023-04-25T10:28:11;10.89;51.16
68912;SHT31;55953;51.650;-0.522;2023-04-25T10:30:56;11.14;50.78
68912;SHT31;55953;51.650;-0.522;2023-04-25T10:33:29;11.28;48.27
68912;SHT31;55953;51.650;-0.522;2023-04-25T10:36:19;11.27;49.58
68912;SHT31;55953;51.650;-0.522;2023-04-25T10:38:50;11.37;50.66
68912;SHT31;55953;51.650;-0.522;2023-04-25T10:41:20;11.22;47.50
68912;SHT31;55953;51.650;-0.522;2023-04-25T10:43:58;10.99;46.87
68912;SHT31;55953;51.650;-0.522;2023-04-25T10:46:29;10.93;46.97
68912;SHT31;55953;51.650;-0.522;2023-04-25T10:48:59;11.09;47.14
68912;SHT31;55953;51.650;-0.522;2023-04-25T10:51:31;11.50;48.54
68912;SHT31;55953;51.650;-0.522;2023-04-25T10:54:20;12.03;48.72
68912;SHT31;55953;51.650;-0.522;2023-04-25T10:56:52;12.26;45.67
68912;SHT31;55953;51.650;-0.522;2023-04-25T10:59:20;12.01;44.89
68912;SHT31;55953;51.650;-0.522;2023-04-25T11:01:52;11.76;45.76
68912;SHT31;55953;51.650;-0.522;2023-04-25T11:04:30;11.75;48.85
68912;SHT31;55953;51.650;-0.522;2023-04-25T11:10:05;12.06;45.17
68912;SHT31;55953;51.650;-0.522;2023-04-25T11:12:34;12.27;43.71
68912;SHT31;55953;51.650;-0.522;2023-04-25T11:15:02;12.35;43.81
68912;SHT31;55953;51.650;-0.522;2023-04-25T11:17:35;12.33;44.32
68912;SHT31;55953;51.650;-0.522;2023-04-25T11:20:03;12.35;47.10
68912;SHT31;55953;51.650;-0.522;2023-04-25T11:22:35;12.47;48.03
68912;SHT31;55953;51.650;-0.522;2023-04-25T11:25:08;12.40;47.02
68912;SHT31;55953;51.650;-0.522;2023-04-25T11:27:57;12.36;46.94
68912;SHT31;55953;51.650;-0.522;2023-04-25T11:30:28;12.53;47.42
68912;SHT31;55953;51.650;-0.522;2023-04-25T11:32:58;12.78;46.44
68912;SHT31;55953;51.650;-0.522;2023-04-25T11:35:26;13.04;45.71
68912;SHT31;55953;51.650;-0.522;2023-04-25T11:37:54;13.26;44.58
68912;SHT31;55953;51.650;-0.522;2023-04-25T11:40:22;13.48;45.45
68912;SHT31;55953;51.650;-0.522;2023-04-25T11:42:50;13.62;45.28
68912;SHT31;55953;51.650;-0.522;2023-04-25T11:45:21;13.58;42.79
68912;SHT31;55953;51.650;-0.522;2023-04-25T11:47:51;13.21;42.06
68912;SHT31;55953;51.650;-0.522;2023-04-25T11:50:19;12.88;42.06
68912;SHT31;55953;51.650;-0.522;2023-04-25T11:52:47;12.70;42.93
68912;SHT31;55953;51.650;-0.522;2023-04-25T11:55:17;12.49;44.65
68912;SHT31;55953;51.650;-0.522;2023-04-25T11:57:48;12.51;45.67
68912;SHT31;55953;51.650;-0.522;2023-04-25T12:00:21;12.24;43.44
68912;SHT31;55953;51.650;-0.522;2023-04-25T12:02:53;11.96;44.60
68912;SHT31;55953;51.650;-0.522;2023-04-25T12:05:29;11.87;45.39
68912;SHT31;55953;51.650;-0.522;2023-04-25T12:08:14;11.78;44.99
68912;SHT31;55953;51.650;-0.522;2023-04-25T12:10:44;11.53;43.85
68912;SHT31;55953;51.650;-0.522;2023-04-25T12:13:23;11.49;44.18
68912;SHT31;55953;51.650;-0.522;2023-04-25T12:15:56;11.76;45.13
68912;SHT31;55953;51.650;-0.522;2023-04-25T12:18:24;12.15;46.17
68912;SHT31;55953;51.650;-0.522;2023-04-25T12:20:55;12.40;45.72
68912;SHT31;55953;51.650;-0.522;2023-04-25T12:23:26;12.53;45.34
68912;SHT31;55953;51.650;-0.522;2023-04-25T12:25:55;12.15;41.81
68912;SHT31;55953;51.650;-0.522;2023-04-25T12:28:24;12.02;44.03
68912;SHT31;55953;51.650;-0.522;2023-04-25T12:30:55;12.02;44.65
68912;SHT31;55953;51.650;-0.522;2023-04-25T12:33:31;11.86;43.66
68912;SHT31;55953;51.650;-0.522;2023-04-25T12:36:02;11.78;44.25
68912;SHT31;55953;51.650;-0.522;2023-04-25T12:38:40;11.82;43.90
68912;SHT31;55953;51.650;-0.522;2023-04-25T12:41:09;11.93;43.70
68912;SHT31;55953;51.650;-0.522;2023-04-25T12:43:37;11.99;43.53
68912;SHT31;55953;51.650;-0.522;2023-04-25T12:46:05;11.96;43.19
68912;SHT31;55953;51.650;-0.522;2023-04-25T12:48:33;12.10;43.24
68912;SHT31;55953;51.650;-0.522;2023-04-25T12:51:01;12.20;42.44
68912;SHT31;55953;51.650;-0.522;2023-04-25T12:53:28;12.15;42.02
68912;SHT31;55953;51.650;-0.522;2023-04-25T12:55:57;12.38;43.44
68912;SHT31;55953;51.650;-0.522;2023-04-25T12:58:24;12.74;41.98
68912;SHT31;55953;51.650;-0.522;2023-04-25T13:00:53;13.04;41.32
68912;SHT31;55953;51.650;-0.522;2023-04-25T13:03:21;13.37;42.06
68912;SHT31;55953;51.650;-0.522;2023-04-25T13:05:50;13.31;39.46
68912;SHT31;55953;51.650;-0.522;2023-04-25T13:08:20;12.81;40.28
68912;SHT31;55953;51.650;-0.522;2023-04-25T13:10:48;12.55;40.83
68912;SHT31;55953;51.650;-0.522;2023-04-25T13:13:15;12.31;40.38
68912;SHT31;55953;51.650;-0.522;2023-04-25T13:15:44;12.11;41.85
68912;SHT31;55953;51.650;-0.522;2023-04-25T13:18:12;12.07;43.98
68912;SHT31;55953;51.650;-0.522;2023-04-25T13:20:40;12.14;41.98
68912;SHT31;55953;51.650;-0.522;2023-04-25T13:23:07;12.41;43.44
68912;SHT31;55953;51.650;-0.522;2023-04-25T13:25:35;12.77;42.97
68912;SHT31;55953;51.650;-0.522;2023-04-25T13:28:03;13.21;42.71
68912;SHT31;55953;51.650;-0.522;2023-04-25T13:30:32;13.58;42.08
68912;SHT31;55953;51.650;-0.522;2023-04-25T13:33:00;13.89;41.65
68912;SHT31;55953;51.650;-0.522;2023-04-25T13:35:31;14.16;39.52
68912;SHT31;55953;51.650;-0.522;2023-04-25T13:38:01;14.04;40.41
68912;SHT31;55953;51.650;-0.522;2023-04-25T13:40:30;14.10;41.00
68912;SHT31;55953;51.650;-0.522;2023-04-25T13:42:59;14.01;40.85
68912;SHT31;55953;51.650;-0.522;2023-04-25T13:45:29;13.90;41.12
68912;SHT31;55953;51.650;-0.522;2023-04-25T13:47:59;13.81;41.45
68912;SHT31;55953;51.650;-0.522;2023-04-25T13:50:28;13.57;40.05
68912;SHT31;55953;51.650;-0.522;2023-04-25T13:52:56;13.32;40.74
68912;SHT31;55953;51.650;-0.522;2023-04-25T13:55:24;12.98;39.49
68912;SHT31;55953;51.650;-0.522;2023-04-25T13:57:53;12.81;40.83
68912;SHT31;55953;51.650;-0.522;2023-04-25T14:00:21;12.83;39.73
68912;SHT31;55953;51.650;-0.522;2023-04-25T14:02:49;12.67;39.21
68912;SHT31;55953;51.650;-0.522;2023-04-25T14:05:17;12.58;41.16
68912;SHT31;55953;51.650;-0.522;2023-04-25T14:07:45;12.78;41.00
68912;SHT31;55953;51.650;-0.522;2023-04-25T14:10:13;13.01;40.15
68912;SHT31;55953;51.650;-0.522;2023-04-25T14:12:40;13.26;40.22
68912;SHT31;55953;51.650;-0.522;2023-04-25T14:15:08;13.40;39.11
68912;SHT31;55953;51.650;-0.522;2023-04-25T14:17:38;13.53;38.30
68912;SHT31;55953;51.650;-0.522;2023-04-25T14:20:08;13.71;38.88
68912;SHT31;55953;51.650;-0.522;2023-04-25T14:22:38;13.81;37.99
68912;SHT31;55953;51.650;-0.522;2023-04-25T14:25:10;13.98;39.13
68912;SHT31;55953;51.650;-0.522;2023-04-25T14:27:38;14.29;39.06
68912;SHT31;55953;51.650;-0.522;2023-04-25T14:30:06;14.55;38.80
68912;SHT31;55953;51.650;-0.522;2023-04-25T14:32:38;14.84;37.96
68912;SHT31;55953;51.650;-0.522;2023-04-25T14:35:07;14.86;35.41
68912;SHT31;55953;51.650;-0.522;2023-04-25T14:37:36;14.91;37.29
68912;SHT31;55953;51.650;-0.522;2023-04-25T14:40:04;14.88;36.84
68912;SHT31;55953;51.650;-0.522;2023-04-25T14:42:34;14.71;37.18
68912;SHT31;55953;51.650;-0.522;2023-04-25T14:45:03;14.69;38.08
68912;SHT31;55953;51.650;-0.522;2023-04-25T14:47:35;14.39;36.29
68912;SHT31;55953;51.650;-0.522;2023-04-25T14:50:05;14.04;37.94
68912;SHT31;55953;51.650;-0.522;2023-04-25T14:52:34;13.55;37.46
68912;SHT31;55953;51.650;-0.522;2023-04-25T14:55:02;13.29;38.50
68912;SHT31;55953;51.650;-0.522;2023-04-25T14:57:34;13.06;39.02
68912;SHT31;55953;51.650;-0.522;2023-04-25T15:00:02;12.70;38.79
68912;SHT31;55953;51.650;-0.522;2023-04-25T15:02:34;12.37;39.10
68912;SHT31;55953;51.650;-0.522;2023-04-25T15:05:03;12.25;40.43
68912;SHT31;55953;51.650;-0.522;2023-04-25T15:07:32;12.24;40.05
68912;SHT31;55953;51.650;-0.522;2023-04-25T15:10:00;12.21;39.97
68912;SHT31;55953;51.650;-0.522;2023-04-25T15:12:30;12.23;40.82
68912;SHT31;55953;51.650;-0.522;2023-04-25T15:14:58;12.35;40.99
68912;SHT31;55953;51.650;-0.522;2023-04-25T15:17:26;12.44;40.28
68912;SHT31;55953;51.650;-0.522;2023-04-25T15:19:58;12.65;39.72
68912;SHT31;55953;51.650;-0.522;2023-04-25T15:22:26;13.00;40.54
68912;SHT31;55953;51.650;-0.522;2023-04-25T15:24:53;13.15;39.48
68912;SHT31;55953;51.650;-0.522;2023-04-25T15:27:22;13.19;39.53
68912;SHT31;55953;51.650;-0.522;2023-04-25T15:29:50;13.36;39.52
68912;SHT31;55953;51.650;-0.522;2023-04-25T15:32:18;13.60;38.61
68912;SHT31;55953;51.650;-0.522;2023-04-25T15:34:47;14.01;38.69
68912;SHT31;55953;51.650;-0.522;2023-04-25T15:37:15;14.43;38.23
68912;SHT31;55953;51.650;-0.522;2023-04-25T15:39:43;14.65;37.24
68912;SHT31;55953;51.650;-0.522;2023-04-25T15:42:11;14.54;36.10
68912;SHT31;55953;51.650;-0.522;2023-04-25T15:44:39;14.25;36.73
68912;SHT31;55953;51.650;-0.522;2023-04-25T15:47:07;14.12;38.10
68912;SHT31;55953;51.650;-0.522;2023-04-25T15:49:35;14.06;38.79
68912;SHT31;55953;51.650;-0.522;2023-04-25T15:52:03;13.97;39.19
68912;SHT31;55953;51.650;-0.522;2023-04-25T15:54:30;13.95;39.68